sensor_id;sensor_type;location;lat;lon;timestamp;pressure;altitude;pressure_sealevel;temperature;humidity
10720;BME280;5411;58.386;15.560;2022-11-04T00:02:25;100053.94;;;8.43;100.00
10720;BME280;5411;58.386;15.560;2022-11-04T00:04:53;100060.28;;;8.42;100.00
10720;BME280;5411;58.386;15.560;2022-11-04T00:07:21;100055.78;;;8.43;100.00
10720;BME280;5411;58.386;15.560;2022-11-04T00:10:07;100049.41;;;8.44;100.00
10720;BME280;5411;58.386;15.560;2022-11-04T00:12:35;100060.09;;;8.44;100.00
10720;BME280;5411;58.386;15.560;2022-11-04T00:15:03;100054.75;;;8.44;100.00
10720;BME280;5411;58.386;15.560;2022-11-04T00:17:47;100057.22;;;8.45;100.00
10720;BME280;5411;58.386;15.560;2022-11-04T00:20:15;100051.06;;;8.45;100.00
10720;BME280;5411;58.386;15.560;2022-11-04T00:23:01;100041.84;;;8.47;100.00
10720;BME280;5411;58.386;15.560;2022-11-04T00:25:46;100049.66;;;8.49;100.00
10720;BME280;5411;58.386;15.560;2022-11-04T00:28:32;100057.47;;;8.50;100.00
10720;BME280;5411;58.386;15.560;2022-11-04T00:31:09;100047.41;;;8.52;100.00
10720;BME280;5411;58.386;15.560;2022-11-04T00:33:57;100043.34;;;8.56;100.00
10720;BME280;5411;58.386;15.560;2022-11-04T00:36:26;100038.00;;;8.56;100.00
10720;BME280;5411;58.386;15.560;2022-11-04T00:38:54;100038.44;;;8.60;100.00
10720;BME280;5411;58.386;15.560;2022-11-04T00:41:22;100029.22;;;8.63;100.00
10720;BME280;5411;58.386;15.560;2022-11-04T00:43:57;100023.47;;;8.66;100.00
10720;BME280;5411;58.386;15.560;2022-11-04T00:46:27;100026.75;;;8.68;100.00
10720;BME280;5411;58.386;15.560;2022-11-04T00:48:57;100036.22;;;8.70;100.00
10720;BME280;5411;58.386;15.560;2022-11-04T00:51:25;100030.69;;;8.72;100.00
10720;BME280;5411;58.386;15.560;2022-11-04T00:53:54;100038.31;;;8.75;100.00
10720;BME280;5411;58.386;15.560;2022-11-04T00:56:24;100041.59;;;8.77;100.00
10720;BME280;5411;58.386;15.560;2022-11-04T00:58:53;100036.84;;;8.79;100.00
10720;BME280;5411;58.386;15.560;2022-11-04T01:01:21;100032.16;;;8.81;100.00
10720;BME280;5411;58.386;15.560;2022-11-04T01:03:50;100041.59;;;8.83;100.00
10720;BME280;5411;58.386;15.560;2022-11-04T01:06:22;100046.75;;;8.85;100.00
10720;BME280;5411;58.386;15.560;2022-11-04T01:08:54;100049.22;;;8.86;100.00
10720;BME280;5411;58.386;15.560;2022-11-04T01:11:23;100042.03;;;8.87;100.00
10720;BME280;5411;58.386;15.560;2022-11-04T01:13:52;100048.81;;;8.89;100.00
10720;BME280;5411;58.386;15.560;2022-11-04T01:16:20;100053.97;;;8.91;100.00
10720;BME280;5411;58.386;15.560;2022-11-04T01:18:49;100055.19;;;8.95;100.00
10720;BME280;5411;58.386;15.560;2022-11-04T01:21:17;100055.63;;;8.99;100.00
10720;BME280;5411;58.386;15.560;2022-11-04T01:23:48;100045.19;;;9.04;100.00
10720;BME280;5411;58.386;15.560;2022-11-04T01:26:19;100047.84;;;9.10;100.00
10720;BME280;5411;58.386;15.560;2022-11-04T01:28:48;100041.91;;;9.15;100.00
10720;BME280;5411;58.386;15.560;2022-11-04T01:31:18;100050.94;;;9.20;100.00
10720;BME280;5411;58.386;15.560;2022-11-04T01:33:48;100039.69;;;9.25;100.00
10720;BME280;5411;58.386;15.560;2022-11-04T01:36:16;100034.78;;;9.28;100.00
10720;BME280;5411;58.386;15.560;2022-11-04T01:38:44;100030.88;;;9.31;100.00
10720;BME280;5411;58.386;15.560;2022-11-04T01:41:18;100038.06;;;9.37;100.00
10720;BME280;5411;58.386;15.560;2022-11-04T01:43:49;100033.16;;;9.41;100.00
10720;BME280;5411;58.386;15.560;2022-11-04T01:46:25;100035.22;;;9.45;100.00
10720;BME280;5411;58.386;15.560;2022-11-04T01:48:59;100026.16;;;9.46;100.00
10720;BME280;5411;58.386;15.560;2022-11-04T01:51:31;100023.91;;;9.50;100.00
10720;BME280;5411;58.386;15.560;2022-11-04T01:54:01;100026.56;;;9.50;100.00
10720;BME280;5411;58.386;15.560;2022-11-04T01:56:32;100015.69;;;9.51;100.00
10720;BME280;5411;58.386;15.560;2022-11-04T01:59:05;100015.88;;;9.50;100.00
10720;BME280;5411;58.386;15.560;2022-11-04T02:01:34;100018.13;;;9.46;100.00
10720;BME280;5411;58.386;15.560;2022-11-04T02:04:03;100014.06;;;9.44;100.00
10720;BME280;5411;58.386;15.560;2022-11-04T02:06:46;100008.50;;;9.39;100.00
10720;BME280;5411;58.386;15.560;2022-11-04T02:09:16;100008.06;;;9.35;100.00
10720;BME280;5411;58.386;15.560;2022-11-04T02:11:46;100009.53;;;9.31;100.00
10720;BME280;5411;58.386;15.560;2022-11-04T02:14:33;100004.78;;;9.26;100.00
10720;BME280;5411;58.386;15.560;2022-11-04T02:17:13;100004.56;;;9.21;100.00
10720;BME280;5411;58.386;15.560;2022-11-04T02:20:01;100014.22;;;9.16;100.00
10720;BME280;5411;58.386;15.560;2022-11-04T02:23:11;100004.34;;;9.10;100.00
10720;BME280;5411;58.386;15.560;2022-11-04T02:26:07;100008.22;;;9.07;100.00
10720;BME280;5411;58.386;15.560;2022-11-04T02:32:00;99998.56;;;9.00;100.00
10720;BME280;5411;58.386;15.560;2022-11-04T02:34:39;99995.47;;;8.96;100.00
10720;BME280;5411;58.386;15.560;2022-11-04T02:37:14;99999.34;;;8.93;100.00
10720;BME280;5411;58.386;15.560;2022-11-04T02:39:50;99988.28;;;8.90;100.00
10720;BME280;5411;58.386;15.560;2022-11-04T02:42:25;99986.03;;;8.87;100.00
10720;BME280;5411;58.386;15.560;2022-11-04T02:45:08;99983.94;;;8.82;100.00
10720;BME280;5411;58.386;15.560;2022-11-04T02:47:42;99993.16;;;8.80;100.00
10720;BME280;5411;58.386;15.560;2022-11-04T02:50:16;99981.91;;;8.78;100.00
10720;BME280;5411;58.386;15.560;2022-11-04T02:52:52;99983.13;;;8.75;100.00
10720;BME280;5411;58.386;15.560;2022-11-04T02:55:25;99991.31;;;8.74;100.00
10720;BME280;5411;58.386;15.560;2022-11-04T02:57:56;99987.81;;;8.73;100.00
10720;BME280;5411;58.386;15.560;2022-11-04T03:00:27;99987.19;;;8.71;100.00
10720;BME280;5411;58.386;15.560;2022-11-04T03:03:00;99981.47;;;8.74;100.00
10720;BME280;5411;58.386;15.560;2022-11-04T03:05:34;99984.13;;;8.74;100.00
10720;BME280;5411;58.386;15.560;2022-11-04T03:08:06;99971.63;;;8.75;100.00
10720;BME280;5411;58.386;15.560;2022-11-04T03:10:39;99977.56;;;8.77;100.00
10720;BME280;5411;58.386;15.560;2022-11-04T03:13:12;99976.75;;;8.76;100.00
10720;BME280;5411;58.386;15.560;2022-11-04T03:15:49;99972.25;;;8.77;100.00
10720;BME280;5411;58.386;15.560;2022-11-04T03:18:25;99967.09;;;8.75;100.00
10720;BME280;5411;58.386;15.560;2022-11-04T03:21:01;99968.13;;;8.74;100.00
10720;BME280;5411;58.386;15.560;2022-11-04T03:23:29;99969.16;;;8.73;100.00
10720;BME280;5411;58.386;15.560;2022-11-04T03:26:08;99960.53;;;8.71;100.00
10720;BME280;5411;58.386;15.560;2022-11-04T03:28:42;99960.72;;;8.70;100.00
10720;BME280;5411;58.386;15.560;2022-11-04T03:31:21;99960.28;;;8.66;100.00
10720;BME280;5411;58.386;15.560;2022-11-04T03:33:53;99962.13;;;8.66;100.00
10720;BME280;5411;58.386;15.560;2022-11-04T03:36:22;99948.00;;;8.65;100.00
10720;BME280;5411;58.386;15.560;2022-11-04T03:38:51;99945.09;;;8.60;100.00
10720;BME280;5411;58.386;15.560;2022-11-04T03:41:26;99946.94;;;8.60;100.00
10720;BME280;5411;58.386;15.560;2022-11-04T03:43:57;99951.66;;;8.57;100.00
10720;BME280;5411;58.386;15.560;2022-11-04T03:46:26;99950.84;;;8.57;100.00
10720;BME280;5411;58.386;15.560;2022-11-04T03:48:57;99954.53;;;8.56;100.00
10720;BME280;5411;58.386;15.560;2022-11-04T03:51:26;99954.53;;;8.56;100.00
10720;BME280;5411;58.386;15.560;2022-11-04T03:53:54;99946.72;;;8.54;100.00
10720;BME280;5411;58.386;15.560;2022-11-04T03:56:38;99942.63;;;8.52;100.00
10720;BME280;5411;58.386;15.560;2022-11-04T03:59:23;99943.66;;;8.51;100.00
10720;BME280;5411;58.386;15.560;2022-11-04T04:01:58;99934.81;;;8.50;100.00
10720;BME280;5411;58.386;15.560;2022-11-04T04:04:34;99937.50;;;8.50;100.00
10720;BME280;5411;58.386;15.560;2022-11-04T04:07:08;99922.72;;;8.48;100.00
10720;BME280;5411;58.386;15.560;2022-11-04T04:09:41;99930.09;;;8.46;100.00
10720;BME280;5411;58.386;15.560;2022-11-04T04:12:16;99933.97;;;8.43;100.00
10720;BME280;5411;58.386;15.560;2022-11-04T04:14:50;99934.34;;;8.40;100.00
10720;BME280;5411;58.386;15.560;2022-11-04T04:17:21;99932.50;;;8.41;100.00
10720;BME280;5411;58.386;15.560;2022-11-04T04:19:58;99936.19;;;8.40;100.00
10720;BME280;5411;58.386;15.560;2022-11-04T04:22:29;99936.19;;;8.40;100.00
10720;BME280;5411;58.386;15.560;2022-11-04T04:25:02;99938.03;;;8.39;100.00
10720;BME280;5411;58.386;15.560;2022-11-04T04:27:52;99928.63;;;8.37;100.00
10720;BME280;5411;58.386;15.560;2022-11-04T04:30:23;99921.84;;;8.34;100.00
10720;BME280;5411;58.386;15.560;2022-11-04T04:32:57;99924.69;;;8.33;100.00
10720;BME280;5411;58.386;15.560;2022-11-04T04:35:29;99920.56;;;8.30;100.00
10720;BME280;5411;58.386;15.560;2022-11-04T04:38:15;99917.88;;;8.30;100.00
10720;BME280;5411;58.386;15.560;2022-11-04T04:41:05;99914.41;;;8.30;100.00
10720;BME280;5411;58.386;15.560;2022-11-04T04:43:55;99923.22;;;8.30;100.00
10720;BME280;5411;58.386;15.560;2022-11-04T04:46:43;99920.56;;;8.30;100.00
10720;BME280;5411;58.386;15.560;2022-11-04T04:49:12;99929.56;;;8.29;100.00
10720;BME280;5411;58.386;15.560;2022-11-04T04:51:44;99925.88;;;8.30;100.00
10720;BME280;5411;58.386;15.560;2022-11-04T04:54:13;99926.72;;;8.31;100.00
10720;BME280;5411;58.386;15.560;2022-11-04T04:56:41;99935.53;;;8.31;100.00
10720;BME280;5411;58.386;15.560;2022-11-04T04:59:09;99930.19;;;8.31;100.00
10720;BME280;5411;58.386;15.560;2022-11-04T05:01:37;99937.22;;;8.32;100.00
10720;BME280;5411;58.386;15.560;2022-11-04T05:04:05;99930.84;;;8.33;100.00
10720;BME280;5411;58.386;15.560;2022-11-04T05:06:33;99930.03;;;8.33;100.00
10720;BME280;5411;58.386;15.560;2022-11-04T05:09:03;99944.19;;;8.33;100.00
10720;BME280;5411;58.386;15.560;2022-11-04T05:11:32;99932.50;;;8.34;100.00
10720;BME280;5411;58.386;15.560;2022-11-04T05:14:00;99938.66;;;8.35;100.00
10720;BME280;5411;58.386;15.560;2022-11-04T05:16:28;99928.81;;;8.35;100.00
10720;BME280;5411;58.386;15.560;2022-11-04T05:18:58;99936.00;;;8.35;100.00
10720;BME280;5411;58.386;15.560;2022-11-04T05:21:26;99942.34;;;8.34;100.00
10720;BME280;5411;58.386;15.560;2022-11-04T05:23:55;99936.19;;;8.33;100.00
10720;BME280;5411;58.386;15.560;2022-11-04T05:26:28;99941.53;;;8.33;100.00
10720;BME280;5411;58.386;15.560;2022-11-04T05:28:56;99951.16;;;8.34;100.00
10720;BME280;5411;58.386;15.560;2022-11-04T05:31:24;99944.81;;;8.35;100.00
10720;BME280;5411;58.386;15.560;2022-11-04T05:33:58;99948.84;;;8.31;100.00
10720;BME280;5411;58.386;15.560;2022-11-04T05:36:31;99946.66;;;8.35;100.00
10720;BME280;5411;58.386;15.560;2022-11-04T05:38:59;99942.97;;;8.36;100.00
10720;BME280;5411;58.386;15.560;2022-11-04T05:41:29;99948.94;;;8.38;100.00
10720;BME280;5411;58.386;15.560;2022-11-04T05:43:58;99942.34;;;8.40;100.00
10720;BME280;5411;58.386;15.560;2022-11-04T05:46:27;99944.00;;;8.41;100.00
10720;BME280;5411;58.386;15.560;2022-11-04T05:48:57;99937.84;;;8.41;100.00
10720;BME280;5411;58.386;15.560;2022-11-04T05:51:27;99944.81;;;8.42;100.00
10720;BME280;5411;58.386;15.560;2022-11-04T05:53:55;99938.66;;;8.41;100.00
10720;BME280;5411;58.386;15.560;2022-11-04T05:56:24;99935.81;;;8.43;100.00
10720;BME280;5411;58.386;15.560;2022-11-04T05:58:53;99937.66;;;8.42;100.00
10720;BME280;5411;58.386;15.560;2022-11-04T06:01:32;99929.47;;;8.44;100.00
10720;BME280;5411;58.386;15.560;2022-11-04T06:04:02;99916.13;;;8.44;100.00
10720;BME280;5411;58.386;15.560;2022-11-04T06:06:32;99911.00;;;8.42;100.00
10720;BME280;5411;58.386;15.560;2022-11-04T06:09:01;99915.50;;;8.42;100.00
10720;BME280;5411;58.386;15.560;2022-11-04T06:11:30;99920.63;;;8.43;100.00
10720;BME280;5411;58.386;15.560;2022-11-04T06:14:00;99919.63;;;8.44;100.00
10720;BME280;5411;58.386;15.560;2022-11-04T06:16:28;99923.72;;;8.47;100.00
10720;BME280;5411;58.386;15.560;2022-11-04T06:18:56;99927.03;;;8.49;100.00
10720;BME280;5411;58.386;15.560;2022-11-04T06:21:32;99925.81;;;8.51;100.00
10720;BME280;5411;58.386;15.560;2022-11-04T06:24:00;99924.16;;;8.50;100.00
10720;BME280;5411;58.386;15.560;2022-11-04T06:26:29;99926.63;;;8.52;100.00
10720;BME280;5411;58.386;15.560;2022-11-04T06:28:57;99925.00;;;8.51;100.00
10720;BME280;5411;58.386;15.560;2022-11-04T06:31:27;99922.91;;;8.53;100.00
10720;BME280;5411;58.386;15.560;2022-11-04T06:33:55;99925.38;;;8.54;100.00
10720;BME280;5411;58.386;15.560;2022-11-04T06:36:23;99932.38;;;8.55;100.00
10720;BME280;5411;58.386;15.560;2022-11-04T06:38:51;99935.03;;;8.55;100.00
10720;BME280;5411;58.386;15.560;2022-11-04T06:41:23;99927.84;;;8.56;100.00
10720;BME280;5411;58.386;15.560;2022-11-04T06:43:51;99934.63;;;8.58;100.00
10720;BME280;5411;58.386;15.560;2022-11-04T06:46:25;99939.56;;;8.62;100.00
10720;BME280;5411;58.386;15.560;2022-11-04T06:48:55;99943.69;;;8.64;100.00
10720;BME280;5411;58.386;15.560;2022-11-04T06:51:25;99939.78;;;8.67;100.00
10720;BME280;5411;58.386;15.560;2022-11-04T06:53:53;99943.06;;;8.69;100.00
10720;BME280;5411;58.386;15.560;2022-11-04T06:56:23;99942.47;;;8.73;100.00
10720;BME280;5411;58.386;15.560;2022-11-04T06:58:52;99950.91;;;8.77;100.00
10720;BME280;5411;58.386;15.560;2022-11-04T07:01:23;99952.13;;;8.81;100.00
10720;BME280;5411;58.386;15.560;2022-11-04T07:03:53;99952.56;;;8.84;100.00
10720;BME280;5411;58.386;15.560;2022-11-04T07:06:23;99952.78;;;8.89;100.00
10720;BME280;5411;58.386;15.560;2022-11-04T07:08:52;99962.22;;;8.92;100.00
10720;BME280;5411;58.386;15.560;2022-11-04T07:11:21;99955.44;;;8.96;100.00
10720;BME280;5411;58.386;15.560;2022-11-04T07:13:51;99957.09;;;8.97;100.00
10720;BME280;5411;58.386;15.560;2022-11-04T07:16:19;99960.19;;;9.01;100.00
10720;BME280;5411;58.386;15.560;2022-11-04T07:18:47;99957.72;;;9.06;100.00
10720;BME280;5411;58.386;15.560;2022-11-04T07:21:17;99955.47;;;9.09;100.00
10720;BME280;5411;58.386;15.560;2022-11-04T07:23:46;99962.69;;;9.15;100.00
10720;BME280;5411;58.386;15.560;2022-11-04T07:26:14;99959.63;;;9.18;100.00
10720;BME280;5411;58.386;15.560;2022-11-04T07:28:43;99957.34;;;9.22;100.00
10720;BME280;5411;58.386;15.560;2022-11-04T07:31:12;99959.41;;;9.26;100.00
10720;BME280;5411;58.386;15.560;2022-11-04T07:33:40;99956.94;;;9.32;100.00
10720;BME280;5411;58.386;15.560;2022-11-04T07:36:11;99956.31;;;9.36;100.00
10720;BME280;5411;58.386;15.560;2022-11-04T07:38:39;99947.91;;;9.39;100.00
10720;BME280;5411;58.386;15.560;2022-11-04T07:41:09;99953.47;;;9.44;100.00
10720;BME280;5411;58.386;15.560;2022-11-04T07:43:37;99960.63;;;9.50;100.00
10720;BME280;5411;58.386;15.560;2022-11-04T07:46:06;99950.16;;;9.55;100.00
10720;BME280;5411;58.386;15.560;2022-11-04T07:48:35;99944.19;;;9.60;100.00
10720;BME280;5411;58.386;15.560;2022-11-04T07:51:05;99947.91;;;9.65;100.00
10720;BME280;5411;58.386;15.560;2022-11-04T07:53:37;99954.88;;;9.67;100.00
10720;BME280;5411;58.386;15.560;2022-11-04T07:56:12;99955.69;;;9.74;100.00
10720;BME280;5411;58.386;15.560;2022-11-04T07:58:41;99949.72;;;9.78;100.00
10720;BME280;5411;58.386;15.560;2022-11-04T08:01:13;99947.25;;;9.83;100.00
10720;BME280;5411;58.386;15.560;2022-11-04T08:03:43;99945.59;;;9.89;100.00
10720;BME280;5411;58.386;15.560;2022-11-04T08:06:13;99949.50;;;9.93;100.00
10720;BME280;5411;58.386;15.560;2022-11-04T08:08:42;99945.59;;;9.95;100.00
10720;BME280;5411;58.386;15.560;2022-11-04T08:11:13;99943.09;;;10.00;100.00
10720;BME280;5411;58.386;15.560;2022-11-04T08:13:44;99944.34;;;10.05;100.00
10720;BME280;5411;58.386;15.560;2022-11-04T08:16:14;99948.44;;;10.07;100.00
10720;BME280;5411;58.386;15.560;2022-11-04T08:18:43;99955.22;;;10.10;100.00
10720;BME280;5411;58.386;15.560;2022-11-04T08:21:12;99952.94;;;10.13;100.00
10720;BME280;5411;58.386;15.560;2022-11-04T08:23:40;99949.63;;;10.18;100.00
10720;BME280;5411;58.386;15.560;2022-11-04T08:26:10;99941.63;;;10.18;100.00
10720;BME280;5411;58.386;15.560;2022-11-04T08:28:41;99945.34;;;10.23;100.00
10720;BME280;5411;58.386;15.560;2022-11-04T08:31:13;99948.41;;;10.27;100.00
10720;BME280;5411;58.386;15.560;2022-11-04T08:33:43;99949.22;;;10.34;100.00
10720;BME280;5411;58.386;15.560;2022-11-04T08:36:14;99940.97;;;10.35;100.00
10720;BME280;5411;58.386;15.560;2022-11-04T08:38:43;99947.31;;;10.41;100.00
10720;BME280;5411;58.386;15.560;2022-11-04T08:41:14;99939.69;;;10.45;100.00
10720;BME280;5411;58.386;15.560;2022-11-04T08:43:47;99941.97;;;10.48;100.00
10720;BME280;5411;58.386;15.560;2022-11-04T08:46:15;99935.38;;;10.50;100.00
10720;BME280;5411;58.386;15.560;2022-11-04T08:48:44;99929.00;;;10.51;100.00
10720;BME280;5411;58.386;15.560;2022-11-04T08:51:14;99936.78;;;10.53;100.00
10720;BME280;5411;58.386;15.560;2022-11-04T08:53:43;99924.84;;;10.55;100.00
10720;BME280;5411;58.386;15.560;2022-11-04T08:56:14;99922.97;;;10.62;100.00
10720;BME280;5411;58.386;15.560;2022-11-04T08:58:43;99922.91;;;10.69;100.00
10720;BME280;5411;58.386;15.560;2022-11-04T09:01:13;99910.34;;;10.69;100.00
10720;BME280;5411;58.386;15.560;2022-11-04T09:03:42;99914.69;;;10.70;100.00
10720;BME280;5411;58.386;15.560;2022-11-04T09:06:12;99908.28;;;10.71;100.00
10720;BME280;5411;58.386;15.560;2022-11-04T09:08:41;99901.28;;;10.70;100.00
10720;BME280;5411;58.386;15.560;2022-11-04T09:11:12;99905.81;;;10.70;100.00
10720;BME280;5411;58.386;15.560;2022-11-04T09:13:41;99909.75;;;10.67;100.00
10720;BME280;5411;58.386;15.560;2022-11-04T09:16:12;99901.72;;;10.67;100.00
10720;BME280;5411;58.386;15.560;2022-11-04T09:18:41;99902.53;;;10.68;100.00
10720;BME280;5411;58.386;15.560;2022-11-04T09:21:10;99907.88;;;10.68;100.00
10720;BME280;5411;58.386;15.560;2022-11-04T09:23:38;99907.06;;;10.67;100.00
10720;BME280;5411;58.386;15.560;2022-11-04T09:26:08;99910.56;;;10.68;100.00
10720;BME280;5411;58.386;15.560;2022-11-04T09:28:37;99918.59;;;10.68;100.00
10720;BME280;5411;58.386;15.560;2022-11-04T09:31:08;99908.28;;;10.71;100.00
10720;BME280;5411;58.386;15.560;2022-11-04T09:33:36;99907.19;;;10.79;100.00
10720;BME280;5411;58.386;15.560;2022-11-04T09:36:07;99898.72;;;10.89;100.00
10720;BME280;5411;58.386;15.560;2022-11-04T09:38:36;99909.56;;;10.94;100.00
10720;BME280;5411;58.386;15.560;2022-11-04T09:41:10;99903.59;;;10.98;100.00
10720;BME280;5411;58.386;15.560;2022-11-04T09:43:52;99905.16;;;11.06;100.00
10720;BME280;5411;58.386;15.560;2022-11-04T09:46:22;99900.81;;;11.12;100.00
10720;BME280;5411;58.386;15.560;2022-11-04T09:48:52;99898.53;;;11.15;100.00
10720;BME280;5411;58.386;15.560;2022-11-04T09:51:24;99897.63;;;11.21;100.00
10720;BME280;5411;58.386;15.560;2022-11-04T09:54:17;99896.78;;;11.27;100.00
10720;BME280;5411;58.386;15.560;2022-11-04T09:56:48;99901.84;;;11.35;100.00
10720;BME280;5411;58.386;15.560;2022-11-04T09:59:26;99902.63;;;11.42;100.00
10720;BME280;5411;58.386;15.560;2022-11-04T10:02:16;99896.59;;;11.47;100.00
10720;BME280;5411;58.386;15.560;2022-11-04T10:04:55;99889.97;;;11.50;100.00
10720;BME280;5411;58.386;15.560;2022-11-04T10:07:43;99900.25;;;11.53;100.00
10720;BME280;5411;58.386;15.560;2022-11-04T10:10:18;99887.25;;;11.56;100.00
10720;BME280;5411;58.386;15.560;2022-11-04T10:13:00;99892.97;;;11.60;100.00
10720;BME280;5411;58.386;15.560;2022-11-04T10:15:54;99888.00;;;11.63;100.00
10720;BME280;5411;58.386;15.560;2022-11-04T10:18:39;99888.22;;;11.62;100.00
10720;BME280;5411;58.386;15.560;2022-11-04T10:21:22;99877.28;;;11.63;100.00
10720;BME280;5411;58.386;15.560;2022-11-04T10:24:17;99883.03;;;11.67;100.00
10720;BME280;5411;58.386;15.560;2022-11-04T10:26:46;99885.25;;;11.70;100.00
10720;BME280;5411;58.386;15.560;2022-11-04T10:29:27;99874.91;;;11.73;100.00
10720;BME280;5411;58.386;15.560;2022-11-04T10:32:04;99878.41;;;11.74;100.00
10720;BME280;5411;58.386;15.560;2022-11-04T10:34:36;99866.22;;;11.78;100.00
10720;BME280;5411;58.386;15.560;2022-11-04T10:37:10;99863.56;;;11.78;100.00
10720;BME280;5411;58.386;15.560;2022-11-04T10:39:42;99863.13;;;11.81;100.00
10720;BME280;5411;58.386;15.560;2022-11-04T10:42:12;99853.81;;;11.84;100.00
10720;BME280;5411;58.386;15.560;2022-11-04T10:44:42;99847.16;;;11.86;100.00
10720;BME280;5411;58.386;15.560;2022-11-04T10:47:22;99839.50;;;11.90;100.00
10720;BME280;5411;58.386;15.560;2022-11-04T10:50:06;99835.56;;;11.92;100.00
10720;BME280;5411;58.386;15.560;2022-11-04T10:53:07;99848.06;;;11.98;100.00
10720;BME280;5411;58.386;15.560;2022-11-04T10:55:44;99841.81;;;12.04;100.00
10720;BME280;5411;58.386;15.560;2022-11-04T10:58:18;99835.41;;;12.05;100.00
10720;BME280;5411;58.386;15.560;2022-11-04T11:00:49;99830.03;;;12.05;100.00
10720;BME280;5411;58.386;15.560;2022-11-04T11:03:28;99826.97;;;12.02;100.00
10720;BME280;5411;58.386;15.560;2022-11-04T11:06:11;99833.97;;;12.03;100.00
10720;BME280;5411;58.386;15.560;2022-11-04T11:08:40;99835.16;;;12.07;100.00
10720;BME280;5411;58.386;15.560;2022-11-04T11:11:11;99835.84;;;12.02;100.00
10720;BME280;5411;58.386;15.560;2022-11-04T11:13:42;99843.66;;;12.04;100.00
10720;BME280;5411;58.386;15.560;2022-11-04T11:16:12;99843.06;;;12.02;100.00
10720;BME280;5411;58.386;15.560;2022-11-04T11:18:44;99838.97;;;11.99;100.00
10720;BME280;5411;58.386;15.560;2022-11-04T11:21:14;99830.91;;;11.99;100.00
10720;BME280;5411;58.386;15.560;2022-11-04T11:23:47;99833.97;;;12.03;100.00
10720;BME280;5411;58.386;15.560;2022-11-04T11:26:19;99836.22;;;12.06;100.00
10720;BME280;5411;58.386;15.560;2022-11-04T11:28:51;99846.13;;;12.05;100.00
10720;BME280;5411;58.386;15.560;2022-11-04T11:31:25;99833.09;;;12.09;100.00
10720;BME280;5411;58.386;15.560;2022-11-04T11:34:04;99832.41;;;12.13;100.00
10720;BME280;5411;58.386;15.560;2022-11-04T11:36:36;99838.56;;;12.14;100.00
10720;BME280;5411;58.386;15.560;2022-11-04T11:39:15;99841.03;;;12.16;100.00
10720;BME280;5411;58.386;15.560;2022-11-04T11:41:51;99847.66;;;12.13;100.00
10720;BME280;5411;58.386;15.560;2022-11-04T11:44:25;99840.09;;;12.10;100.00
10720;BME280;5411;58.386;15.560;2022-11-04T11:46:55;99845.91;;;12.07;100.00
10720;BME280;5411;58.386;15.560;2022-11-04T11:49:25;99853.28;;;12.11;100.00
10720;BME280;5411;58.386;15.560;2022-11-04T11:52:16;99839.06;;;12.11;100.00
10720;BME280;5411;58.386;15.560;2022-11-04T11:54:46;99839.50;;;12.08;100.00
10720;BME280;5411;58.386;15.560;2022-11-04T11:57:28;99835.78;;;12.09;100.00
10720;BME280;5411;58.386;15.560;2022-11-04T12:00:02;99837.41;;;12.10;100.00
10720;BME280;5411;58.386;15.560;2022-11-04T12:02:56;99825.38;;;12.12;100.00
10720;BME280;5411;58.386;15.560;2022-11-04T12:05:31;99827.63;;;12.16;100.00
10720;BME280;5411;58.386;15.560;2022-11-04T12:08:33;99822.63;;;12.19;100.00
10720;BME280;5411;58.386;15.560;2022-11-04T12:11:28;99829.19;;;12.23;100.00
10720;BME280;5411;58.386;15.560;2022-11-04T12:14:03;99828.28;;;12.29;100.00
10720;BME280;5411;58.386;15.560;2022-11-04T12:16:39;99821.72;;;12.25;100.00
10720;BME280;5411;58.386;15.560;2022-11-04T12:19:33;99829.91;;;12.30;100.00
10720;BME280;5411;58.386;15.560;2022-11-04T12:22:13;99818.69;;;12.22;100.00
10720;BME280;5411;58.386;15.560;2022-11-04T12:24:50;99813.78;;;12.19;100.00
10720;BME280;5411;58.386;15.560;2022-11-04T12:27:29;99810.94;;;12.13;100.00
10720;BME280;5411;58.386;15.560;2022-11-04T12:30:06;99804.41;;;12.09;100.00
10720;BME280;5411;58.386;15.560;2022-11-04T12:32:54;99799.72;;;12.05;100.00
10720;BME280;5411;58.386;15.560;2022-11-04T12:35:37;99802.63;;;12.03;100.00
10720;BME280;5411;58.386;15.560;2022-11-04T12:38:35;99799.56;;;12.00;100.00
10720;BME280;5411;58.386;15.560;2022-11-04T12:41:15;99803.28;;;11.99;100.00
10720;BME280;5411;58.386;15.560;2022-11-04T12:44:17;99790.97;;;11.98;100.00
10720;BME280;5411;58.386;15.560;2022-11-04T12:46:57;99797.47;;;12.02;100.00
10720;BME280;5411;58.386;15.560;2022-11-04T12:49:40;99800.16;;;12.02;100.00
10720;BME280;5411;58.386;15.560;2022-11-04T12:52:24;99796.66;;;12.01;100.00
10720;BME280;5411;58.386;15.560;2022-11-04T12:55:04;99792.94;;;12.02;100.00
10720;BME280;5411;58.386;15.560;2022-11-04T12:57:47;99794.13;;;12.06;100.00
10720;BME280;5411;58.386;15.560;2022-11-04T13:00:20;99794.34;;;12.05;100.00
10720;BME280;5411;58.386;15.560;2022-11-04T13:02:59;99783.41;;;12.06;100.00
10720;BME280;5411;58.386;15.560;2022-11-04T13:05:39;99790.63;;;12.06;100.00
10720;BME280;5411;58.386;15.560;2022-11-04T13:08:15;99785.50;;;12.04;100.00
10720;BME280;5411;58.386;15.560;2022-11-04T13:10:50;99795.19;;;12.05;100.00
10720;BME280;5411;58.386;15.560;2022-11-04T13:13:23;99785.13;;;12.01;100.00
10720;BME280;5411;58.386;15.560;2022-11-04T13:15:59;99783.72;;;11.98;100.00
10720;BME280;5411;58.386;15.560;2022-11-04T13:18:34;99791.41;;;11.95;100.00
10720;BME280;5411;58.386;15.560;2022-11-04T13:21:10;99795.72;;;11.96;100.00
10720;BME280;5411;58.386;15.560;2022-11-04T13:23:44;99796.53;;;11.96;100.00
10720;BME280;5411;58.386;15.560;2022-11-04T13:26:16;99793.38;;;11.99;100.00
10720;BME280;5411;58.386;15.560;2022-11-04T13:28:49;99786.75;;;12.02;100.00
10720;BME280;5411;58.386;15.560;2022-11-04T13:31:27;99786.97;;;12.00;100.00
10720;BME280;5411;58.386;15.560;2022-11-04T13:34:05;99793.16;;;12.01;100.00